createdAt,value
2022-10-23T00:00:35.167Z,15.14
2022-10-23T00:03:01.868Z,15.29
2022-10-23T00:05:29.178Z,15.27
2022-10-23T00:07:57.615Z,15.12
2022-10-23T00:10:25.313Z,15.14
2022-10-23T00:12:52.161Z,15.03
2022-10-23T00:15:21.324Z,15.06
2022-10-23T00:17:48.246Z,15.11
2022-10-23T00:20:16.205Z,14.97
2022-10-23T00:22:43.731Z,15.03
2022-10-23T00:25:10.958Z,15.10
2022-10-23T00:27:37.589Z,15.01
2022-10-23T00:30:06.012Z,15.03
2022-10-23T00:34:58.981Z,14.77
2022-10-23T00:37:25.440Z,14.99
2022-10-23T00:39:52.010Z,14.81
2022-10-23T00:42:20.325Z,14.78
2022-10-23T00:44:46.799Z,14.73
2022-10-23T00:47:13.730Z,14.66
2022-10-23T00:49:42.761Z,14.72
2022-10-23T00:52:12.908Z,14.82
2022-10-23T00:54:41.481Z,14.60
2022-10-23T00:57:12.242Z,14.48
2022-10-23T00:59:39.436Z,14.61
2022-10-23T01:02:06.977Z,14.74
2022-10-23T01:04:34.213Z,14.66
2022-10-23T01:07:08.394Z,14.64
2022-10-23T01:09:55.263Z,14.52
2022-10-23T01:12:47.129Z,14.57
2022-10-23T01:15:41.027Z,14.54
2022-10-23T01:18:18.104Z,14.72
2022-10-23T01:21:05.472Z,14.46
2022-10-23T01:23:52.158Z,14.34
2022-10-23T01:26:24.661Z,14.48
2022-10-23T01:29:09.516Z,14.55
2022-10-23T01:31:39.764Z,14.50
2022-10-23T01:34:13.388Z,14.53
2022-10-23T01:36:42.008Z,14.41
2022-10-23T01:39:12.830Z,14.41
2022-10-23T01:41:46.750Z,14.54
2022-10-23T01:44:18.789Z,14.36
2022-10-23T01:46:47.087Z,14.33
2022-10-23T01:49:14.280Z,14.31
2022-10-23T01:51:44.846Z,14.27
2022-10-23T01:54:13.822Z,14.41
2022-10-23T01:56:43.430Z,14.28
2022-10-23T01:59:13.823Z,14.33
2022-10-23T02:01:42.408Z,14.28
2022-10-23T02:04:10.739Z,14.28
2022-10-23T02:06:37.188Z,14.28
2022-10-23T02:09:04.722Z,14.24
2022-10-23T02:11:32.497Z,14.29
2022-10-23T02:14:27.220Z,14.17
2022-10-23T02:16:55.351Z,14.21
2022-10-23T02:19:47.769Z,14.06
2022-10-23T02:22:38.634Z,14.20
2022-10-23T02:25:16.783Z,14.34
2022-10-23T02:27:49.367Z,14.18
2022-10-23T02:30:17.686Z,14.25
2022-10-23T02:32:49.822Z,14.19
2022-10-23T02:35:18.364Z,14.23
2022-10-23T02:37:55.828Z,14.40
2022-10-23T02:40:24.452Z,14.59
2022-10-23T02:42:57.332Z,14.43
2022-10-23T02:45:26.888Z,14.67
2022-10-23T02:48:07.017Z,14.58
2022-10-23T02:50:52.084Z,14.51
2022-10-23T02:53:18.469Z,14.60
2022-10-23T02:55:55.884Z,14.65
2022-10-23T02:58:36.088Z,14.88
2022-10-23T03:01:06.649Z,14.57
2022-10-23T03:03:36.653Z,14.47
2022-10-23T03:06:03.738Z,14.17
2022-10-23T03:08:30.183Z,14.51
2022-10-23T03:10:56.809Z,14.51
2022-10-23T03:13:23.581Z,14.60
2022-10-23T03:15:50.144Z,14.63
2022-10-23T03:18:16.628Z,14.53
2022-10-23T03:20:43.065Z,14.30
2022-10-23T03:23:12.265Z,14.64
2022-10-23T03:25:38.713Z,14.61
2022-10-23T03:28:05.146Z,14.36
2022-10-23T03:30:31.606Z,14.19
2022-10-23T03:32:58.208Z,14.16
2022-10-23T03:35:24.651Z,14.28
2022-10-23T03:37:51.052Z,14.53
2022-10-23T03:40:17.500Z,14.34
2022-10-23T03:42:43.949Z,14.63
2022-10-23T03:45:10.620Z,14.41
2022-10-23T03:47:41.235Z,14.47
2022-10-23T03:50:09.472Z,14.51
2022-10-23T03:52:36.301Z,14.56
2022-10-23T03:55:03.694Z,14.59
2022-10-23T03:57:30.149Z,14.50
2022-10-23T03:59:56.664Z,14.18
2022-10-23T04:02:23.310Z,14.61
2022-10-23T04:04:49.855Z,14.73
2022-10-23T04:07:16.392Z,14.46
2022-10-23T04:09:42.812Z,14.36
2022-10-23T04:12:09.589Z,14.15
2022-10-23T04:14:36.100Z,14.32
2022-10-23T04:17:02.673Z,14.31
2022-10-23T04:19:29.146Z,14.29
2022-10-23T04:21:57.102Z,14.54
2022-10-23T04:24:24.570Z,14.62
2022-10-23T04:26:51.404Z,14.45
2022-10-23T04:29:18.546Z,14.43
2022-10-23T04:31:45.017Z,14.44
2022-10-23T04:34:11.456Z,14.66
2022-10-23T04:36:37.924Z,14.54
2022-10-23T04:39:04.367Z,14.54
2022-10-23T04:41:30.925Z,14.48
2022-10-23T04:43:57.364Z,14.39
2022-10-23T04:46:23.828Z,14.61
2022-10-23T04:48:50.290Z,14.64
2022-10-23T04:51:16.748Z,14.80
2022-10-23T04:53:43.207Z,14.77
2022-10-23T04:56:13.250Z,14.60
2022-10-23T04:58:39.774Z,14.44
2022-10-23T05:01:07.413Z,14.31
2022-10-23T05:03:33.987Z,14.41
2022-10-23T05:06:00.460Z,14.21
2022-10-23T05:08:26.901Z,14.49
2022-10-23T05:10:53.340Z,14.57
2022-10-23T05:13:20.280Z,14.36
2022-10-23T05:15:48.693Z,14.40
2022-10-23T05:18:34.253Z,14.37
2022-10-23T05:21:10.707Z,14.54
2022-10-23T05:23:38.385Z,14.65
2022-10-23T05:26:05.207Z,14.53
2022-10-23T05:28:31.668Z,14.50
2022-10-23T05:31:00.257Z,14.54
2022-10-23T05:33:27.266Z,14.40
2022-10-23T05:35:53.768Z,14.56
2022-10-23T05:38:20.229Z,14.38
2022-10-23T05:40:46.798Z,14.50
2022-10-23T05:43:13.217Z,14.64
2022-10-23T05:45:39.705Z,14.59
2022-10-23T05:48:17.005Z,14.55
2022-10-23T05:50:49.260Z,14.84
2022-10-23T05:53:15.949Z,14.47
2022-10-23T05:55:42.410Z,14.47
2022-10-23T05:58:08.878Z,14.59
2022-10-23T06:00:35.305Z,14.44
2022-10-23T06:03:02.893Z,14.79
2022-10-23T06:05:29.543Z,14.70
2022-10-23T06:07:59.846Z,14.56
2022-10-23T06:10:27.385Z,14.29
2022-10-23T06:12:53.926Z,14.57
2022-10-23T06:15:20.417Z,14.67
2022-10-23T06:17:46.892Z,14.80
2022-10-23T06:20:13.426Z,14.85
2022-10-23T06:22:40.187Z,14.64
2022-10-23T06:25:08.083Z,14.40
2022-10-23T06:27:34.575Z,14.27
2022-10-23T06:30:01.092Z,14.68
2022-10-23T06:32:31.889Z,14.75
2022-10-23T06:34:58.328Z,14.84
2022-10-23T06:37:25.398Z,14.99
2022-10-23T06:39:51.865Z,14.81
2022-10-23T06:42:18.338Z,14.18
2022-10-23T06:44:44.763Z,14.59
2022-10-23T06:47:13.062Z,14.48
2022-10-23T06:49:40.514Z,14.63
2022-10-23T06:52:14.238Z,14.62
2022-10-23T06:54:50.431Z,14.74
2022-10-23T06:57:16.906Z,14.78
2022-10-23T06:59:44.245Z,14.92
2022-10-23T07:02:10.739Z,14.90
2022-10-23T07:04:37.189Z,14.78
2022-10-23T07:07:03.649Z,15.01
2022-10-23T07:09:30.241Z,14.88
2022-10-23T07:11:56.784Z,14.85
2022-10-23T07:14:23.313Z,14.89
2022-10-23T07:16:49.772Z,15.20
2022-10-23T07:19:16.218Z,15.02
2022-10-23T07:21:42.681Z,15.17
2022-10-23T07:24:09.139Z,15.03
2022-10-23T07:26:36.380Z,15.19
2022-10-23T07:29:02.979Z,15.19
2022-10-23T07:31:29.530Z,15.01
2022-10-23T07:33:56.031Z,15.02
2022-10-23T07:36:23.015Z,15.05
2022-10-23T07:38:50.681Z,15.16
2022-10-23T07:41:17.495Z,15.35
2022-10-23T07:43:44.041Z,15.51
2022-10-23T07:46:10.508Z,15.15
2022-10-23T07:48:38.068Z,15.30
2022-10-23T07:51:10.799Z,15.34
2022-10-23T07:53:38.192Z,15.06
2022-10-23T07:56:12.669Z,15.24
2022-10-23T07:58:39.140Z,15.16
2022-10-23T08:01:16.223Z,15.13
2022-10-23T08:03:42.755Z,15.51
2022-10-23T08:06:09.211Z,15.67
2022-10-23T08:08:35.687Z,15.50
2022-10-23T08:11:02.201Z,15.53
2022-10-23T08:13:28.694Z,15.59
2022-10-23T08:15:55.961Z,15.76
2022-10-23T08:18:23.151Z,15.89
2022-10-23T08:20:52.345Z,16.17
2022-10-23T08:23:22.987Z,16.13
2022-10-23T08:25:49.470Z,16.28
2022-10-23T08:28:16.610Z,15.99
2022-10-23T08:30:43.026Z,16.23
2022-10-23T08:33:10.097Z,16.32
2022-10-23T08:35:38.396Z,16.41
2022-10-23T08:38:08.224Z,16.08
2022-10-23T08:40:35.558Z,15.88
2022-10-23T08:43:11.152Z,16.10
2022-10-23T08:45:44.163Z,15.87
2022-10-23T08:48:20.556Z,15.96
2022-10-23T08:50:56.649Z,16.04
2022-10-23T08:53:34.900Z,15.76
2022-10-23T08:56:28.713Z,16.13
2022-10-23T08:58:58.885Z,15.98
2022-10-23T09:01:40.895Z,16.19
2022-10-23T09:04:11.537Z,16.32
2022-10-23T09:06:50.269Z,16.39
2022-10-23T09:09:44.754Z,16.38
2022-10-23T09:12:24.340Z,16.51
2022-10-23T09:15:09.427Z,16.32
2022-10-23T09:17:39.532Z,16.32
2022-10-23T09:20:32.188Z,16.45
2022-10-23T09:23:05.156Z,15.88
2022-10-23T09:25:37.703Z,16.06
2022-10-23T09:28:05.891Z,16.10
2022-10-23T09:30:39.693Z,16.22
2022-10-23T09:33:25.889Z,16.52
2022-10-23T09:35:57.542Z,16.54
2022-10-23T09:38:29.358Z,17.01
2022-10-23T09:40:58.957Z,16.76
2022-10-23T09:43:27.815Z,16.92
2022-10-23T09:46:03.293Z,16.94
2022-10-23T09:48:30.284Z,16.66
2022-10-23T09:51:02.613Z,16.85
2022-10-23T09:53:41.039Z,16.99
2022-10-23T09:56:30.809Z,17.18
2022-10-23T09:59:06.729Z,17.38
2022-10-23T10:01:38.759Z,17.37
2022-10-23T10:04:07.246Z,17.52
2022-10-23T10:06:37.096Z,17.60
2022-10-23T10:09:08.604Z,17.46
2022-10-23T10:11:48.294Z,17.50
2022-10-23T10:14:32.969Z,17.63
2022-10-23T10:17:24.290Z,17.60
2022-10-23T10:20:19.522Z,17.13
2022-10-23T10:22:55.236Z,17.24
2022-10-23T10:25:29.309Z,17.57
2022-10-23T10:28:01.811Z,17.97
2022-10-23T10:30:37.309Z,18.00
2022-10-23T10:33:14.489Z,18.33
2022-10-23T10:35:49.601Z,17.88
2022-10-23T10:38:23.009Z,18.03
2022-10-23T10:41:26.766Z,18.39
2022-10-23T10:44:21.472Z,18.68
2022-10-23T10:47:12.135Z,18.51
2022-10-23T10:49:42.688Z,18.65
2022-10-23T10:52:27.445Z,18.08
2022-10-23T10:54:53.928Z,18.57
2022-10-23T10:57:47.612Z,18.31
2022-10-23T11:00:15.845Z,18.06
2022-10-23T11:02:55.026Z,18.43
2022-10-23T11:05:34.979Z,18.15
2022-10-23T11:08:09.580Z,18.37
2022-10-23T11:10:36.478Z,18.47
2022-10-23T11:13:02.998Z,18.39
2022-10-23T11:15:36.397Z,18.49
2022-10-23T11:18:07.271Z,18.62
2022-10-23T11:20:52.776Z,18.68
2022-10-23T11:23:40.891Z,18.73
2022-10-23T11:26:38.675Z,18.78
2022-10-23T11:29:23.404Z,18.53
2022-10-23T11:32:21.081Z,18.45
2022-10-23T11:35:19.711Z,18.53
2022-10-23T11:37:57.860Z,18.97
2022-10-23T11:40:25.026Z,19.10
2022-10-23T11:42:51.867Z,19.24
2022-10-23T11:45:34.403Z,19.51
2022-10-23T11:48:19.755Z,18.90
2022-10-23T11:50:46.243Z,19.43
2022-10-23T11:53:26.728Z,19.10
2022-10-23T11:56:16.532Z,19.01
2022-10-23T11:58:47.373Z,18.87
2022-10-23T12:01:24.454Z,19.40
2022-10-23T12:04:00.710Z,19.72
2022-10-23T12:06:38.220Z,19.24
2022-10-23T12:09:08.319Z,19.31
2022-10-23T12:11:42.183Z,18.54
2022-10-23T12:14:38.337Z,18.80
2022-10-23T12:17:23.056Z,18.80
2022-10-23T12:20:13.898Z,19.17
2022-10-23T12:23:07.865Z,19.29
2022-10-23T12:25:34.279Z,19.30
2022-10-23T12:28:10.481Z,19.19
2022-10-23T12:30:52.471Z,19.19
2022-10-23T12:33:46.929Z,19.31
2022-10-23T12:36:42.383Z,19.75
2022-10-23T12:39:32.086Z,19.86
2022-10-23T12:42:00.201Z,19.56
2022-10-23T12:44:27.247Z,19.69
2022-10-23T12:46:58.690Z,20.10
2022-10-23T12:49:27.463Z,20.11
2022-10-23T12:52:00.621Z,20.67
2022-10-23T12:54:27.770Z,20.75
2022-10-23T12:56:54.680Z,20.13
2022-10-23T12:59:26.463Z,19.74
2022-10-23T13:01:54.514Z,19.54
2022-10-23T13:04:33.911Z,19.84
2022-10-23T13:07:02.422Z,19.81
2022-10-23T13:09:32.613Z,19.83
2022-10-23T13:12:01.131Z,19.96
2022-10-23T13:14:39.338Z,19.55
2022-10-23T13:17:11.270Z,19.56
2022-10-23T13:19:38.032Z,19.66
2022-10-23T13:22:14.584Z,19.51
2022-10-23T13:24:41.135Z,19.41
2022-10-23T13:27:39.997Z,19.71
2022-10-23T13:30:30.876Z,19.86
2022-10-23T13:32:57.437Z,19.82
2022-10-23T13:35:24.437Z,19.91
2022-10-23T13:37:51.234Z,19.73
2022-10-23T13:40:26.561Z,19.57
2022-10-23T13:42:54.520Z,19.86
2022-10-23T13:45:23.798Z,19.74
2022-10-23T13:47:50.530Z,19.44
2022-10-23T13:50:17.557Z,19.56
2022-10-23T13:52:44.101Z,19.39
2022-10-23T13:55:18.960Z,19.22
2022-10-23T13:57:45.587Z,19.49
2022-10-23T14:00:12.684Z,19.35
2022-10-23T14:02:39.227Z,19.45
2022-10-23T14:05:05.771Z,19.19
2022-10-23T14:07:32.226Z,19.03
2022-10-23T14:09:58.779Z,18.97
2022-10-23T14:12:25.358Z,18.98
2022-10-23T14:14:52.561Z,19.13
2022-10-23T14:17:23.132Z,19.12
2022-10-23T14:19:50.227Z,18.81
2022-10-23T14:22:16.792Z,18.47
2022-10-23T14:24:43.215Z,18.67
2022-10-23T14:27:09.663Z,18.72
2022-10-23T14:29:36.116Z,18.76
2022-10-23T14:32:02.553Z,18.86
2022-10-23T14:34:29.140Z,18.66
2022-10-23T14:37:08.063Z,18.52
2022-10-23T14:39:35.095Z,18.80
2022-10-23T14:42:01.620Z,18.59
2022-10-23T14:44:28.181Z,18.61
2022-10-23T14:46:54.789Z,18.59
2022-10-23T14:49:21.337Z,18.64
2022-10-23T14:51:47.802Z,18.62
2022-10-23T14:54:15.779Z,18.76
2022-10-23T14:56:42.261Z,18.51
2022-10-23T14:59:10.687Z,18.52
2022-10-23T15:01:45.198Z,18.31
2022-10-23T15:04:14.361Z,18.36
2022-10-23T15:06:41.672Z,18.23
2022-10-23T15:09:08.173Z,18.15
2022-10-23T15:11:35.676Z,18.21
2022-10-23T15:14:02.147Z,18.09
2022-10-23T15:16:28.695Z,18.23
2022-10-23T15:18:55.154Z,18.03
2022-10-23T15:21:21.919Z,18.12
2022-10-23T15:23:48.876Z,17.63
2022-10-23T15:26:21.115Z,17.65
2022-10-23T15:28:48.480Z,17.73
2022-10-23T15:31:41.022Z,17.86
2022-10-23T15:34:18.961Z,17.58
2022-10-23T15:36:47.060Z,17.75
2022-10-23T15:39:16.074Z,17.97
2022-10-23T15:41:43.657Z,17.61
2022-10-23T15:44:13.653Z,17.80
2022-10-23T15:46:40.230Z,17.51
2022-10-23T15:49:08.524Z,17.43
2022-10-23T15:51:36.863Z,17.74
2022-10-23T15:54:05.442Z,17.81
2022-10-23T15:56:34.146Z,17.81
2022-10-23T15:59:00.815Z,17.51
2022-10-23T16:01:28.857Z,17.60
2022-10-23T16:03:55.616Z,17.39
2022-10-23T16:06:22.146Z,17.42
2022-10-23T16:08:48.808Z,17.33
2022-10-23T16:11:23.831Z,17.55
2022-10-23T16:13:51.014Z,17.53
2022-10-23T16:16:17.959Z,17.44
2022-10-23T16:18:44.784Z,17.10
2022-10-23T16:21:18.631Z,17.20
2022-10-23T16:23:45.273Z,17.04
2022-10-23T16:26:12.114Z,17.35
2022-10-23T16:28:38.617Z,17.53
2022-10-23T16:31:16.484Z,17.53
2022-10-23T16:33:46.289Z,17.46
2022-10-23T16:36:12.898Z,17.17
2022-10-23T16:38:39.355Z,17.23
2022-10-23T16:41:07.135Z,17.29
2022-10-23T16:43:33.883Z,17.49
2022-10-23T16:46:14.744Z,17.09
2022-10-23T16:48:41.897Z,17.32
2022-10-23T16:51:13.867Z,16.94
2022-10-23T16:53:40.980Z,17.29
2022-10-23T16:56:08.963Z,17.23
2022-10-23T16:58:36.022Z,17.39
2022-10-23T17:01:05.985Z,16.78
2022-10-23T17:03:37.948Z,16.92
2022-10-23T17:06:08.877Z,17.11
2022-10-23T17:08:37.601Z,17.17
2022-10-23T17:11:25.395Z,17.17
2022-10-23T17:13:58.488Z,17.27
2022-10-23T17:16:27.835Z,16.87
2022-10-23T17:18:54.779Z,17.14
2022-10-23T17:21:22.389Z,16.81
2022-10-23T17:23:49.357Z,17.22
2022-10-23T17:26:18.718Z,17.13
2022-10-23T17:28:45.414Z,16.83
2022-10-23T17:31:23.565Z,17.10
2022-10-23T17:33:52.783Z,17.19
2022-10-23T17:36:20.842Z,17.02
2022-10-23T17:38:47.950Z,17.20
2022-10-23T17:41:16.475Z,17.15
2022-10-23T17:43:43.683Z,16.66
2022-10-23T17:46:11.996Z,16.86
2022-10-23T17:48:43.516Z,17.00
2022-10-23T17:51:14.107Z,16.86
2022-10-23T17:53:42.973Z,16.69
2022-10-23T17:56:11.484Z,16.61
2022-10-23T17:58:38.339Z,16.85
2022-10-23T18:01:09.201Z,16.48
2022-10-23T18:03:37.049Z,16.99
2022-10-23T18:06:15.493Z,16.92
2022-10-23T18:08:42.801Z,16.78
2022-10-23T18:11:15.381Z,16.84
2022-10-23T18:13:41.856Z,17.00
2022-10-23T18:16:11.275Z,16.99
2022-10-23T18:18:39.208Z,16.90
2022-10-23T18:21:06.439Z,16.64
2022-10-23T18:23:33.398Z,16.75
2022-10-23T18:26:01.150Z,16.87
2022-10-23T18:28:28.198Z,17.18
2022-10-23T18:30:56.972Z,16.80
2022-10-23T18:33:23.977Z,16.78
2022-10-23T18:35:50.693Z,16.57
2022-10-23T18:38:17.177Z,16.52
2022-10-23T18:40:43.917Z,16.41
2022-10-23T18:43:14.915Z,16.91
2022-10-23T18:45:42.704Z,16.90
2022-10-23T18:48:09.164Z,16.80
2022-10-23T18:50:37.121Z,17.00
2022-10-23T18:53:04.044Z,16.73
2022-10-23T18:55:30.610Z,17.00
2022-10-23T18:57:57.131Z,16.90
2022-10-23T19:00:23.601Z,16.91
2022-10-23T19:02:52.338Z,16.87
2022-10-23T19:05:19.384Z,16.77
2022-10-23T19:07:46.371Z,16.92
2022-10-23T19:10:15.952Z,16.82
2022-10-23T19:12:42.987Z,16.56
2022-10-23T19:15:10.110Z,16.49
2022-10-23T19:17:37.089Z,16.58
2022-10-23T19:20:11.523Z,16.86
2022-10-23T19:22:41.064Z,16.77
2022-10-23T19:25:15.132Z,16.76
2022-10-23T19:27:43.683Z,16.60
2022-10-23T19:30:13.667Z,16.86
2022-10-23T19:32:41.780Z,16.94
2022-10-23T19:35:08.937Z,17.01
2022-10-23T19:37:35.447Z,16.73
2022-10-23T19:40:06.512Z,16.71
2022-10-23T19:42:34.025Z,16.68
2022-10-23T19:45:00.676Z,16.99
2022-10-23T19:47:27.174Z,17.04
2022-10-23T19:49:53.630Z,16.63
2022-10-23T19:52:22.193Z,16.60
2022-10-23T19:54:49.307Z,16.61
2022-10-23T19:57:18.065Z,16.84
2022-10-23T19:59:51.019Z,16.52
2022-10-23T20:02:19.197Z,16.91
2022-10-23T20:04:46.249Z,16.96
2022-10-23T20:07:13.338Z,16.91
2022-10-23T20:09:40.100Z,16.72
2022-10-23T20:12:06.835Z,16.82
2022-10-23T20:14:33.559Z,17.09
2022-10-23T20:17:00.171Z,16.92
2022-10-23T20:19:26.643Z,16.97
2022-10-23T20:21:53.329Z,17.00
2022-10-23T20:24:20.530Z,16.84
2022-10-23T20:26:52.665Z,17.04
2022-10-23T20:29:19.670Z,16.92
2022-10-23T20:31:46.353Z,16.52
2022-10-23T20:34:13.117Z,16.79
2022-10-23T20:36:45.577Z,16.55
2022-10-23T20:39:16.265Z,16.92
2022-10-23T20:41:44.025Z,16.98
2022-10-23T20:44:13.062Z,17.18
2022-10-23T20:46:39.925Z,17.19
2022-10-23T20:49:06.485Z,17.04
2022-10-23T20:51:33.147Z,16.98
2022-10-23T20:53:59.613Z,17.15
2022-10-23T20:56:32.269Z,17.28
2022-10-23T20:58:59.957Z,17.35
2022-10-23T21:01:26.801Z,17.22
2022-10-23T21:03:57.052Z,17.17
2022-10-23T21:06:25.139Z,17.12
2022-10-23T21:09:00.799Z,17.30
2022-10-23T21:11:27.436Z,17.15
2022-10-23T21:13:56.934Z,17.29
2022-10-23T21:16:28.485Z,17.02
2022-10-23T21:18:56.845Z,17.10
2022-10-23T21:21:24.226Z,17.10
2022-10-23T21:23:51.865Z,17.10
2022-10-23T21:26:19.644Z,17.45
2022-10-23T21:28:55.633Z,17.29
2022-10-23T21:31:27.872Z,17.17
2022-10-23T21:33:54.365Z,16.94
2022-10-23T21:36:23.093Z,17.16
2022-10-23T21:38:51.902Z,17.18
2022-10-23T21:41:21.804Z,17.36
2022-10-23T21:43:48.486Z,17.41
2022-10-23T21:46:17.664Z,17.55
2022-10-23T21:48:44.335Z,17.26
2022-10-23T21:51:37.189Z,17.18
2022-10-23T21:54:08.736Z,17.41
2022-10-23T21:56:47.439Z,17.26
2022-10-23T21:59:16.523Z,17.53
2022-10-23T22:01:47.579Z,17.20
2022-10-23T22:04:18.492Z,17.49
2022-10-23T22:06:46.190Z,17.66
2022-10-23T22:09:15.422Z,17.48
2022-10-23T22:11:42.377Z,17.54
2022-10-23T22:14:08.867Z,17.50
2022-10-23T22:16:35.341Z,17.43
2022-10-23T22:19:02.321Z,17.54
2022-10-23T22:21:29.774Z,17.42
2022-10-23T22:23:57.814Z,17.52
2022-10-23T22:26:32.865Z,17.51
2022-10-23T22:29:03.123Z,17.56
2022-10-23T22:31:31.617Z,17.59
2022-10-23T22:33:58.653Z,17.65
2022-10-23T22:36:25.497Z,17.47
2022-10-23T22:38:52.382Z,17.63
2022-10-23T22:41:19.160Z,17.53
2022-10-23T22:43:45.869Z,17.60
2022-10-23T22:46:17.333Z,17.66
2022-10-23T22:48:44.534Z,17.63
2022-10-23T22:51:13.494Z,17.73
2022-10-23T22:53:40.019Z,17.68
2022-10-23T22:56:08.106Z,17.49
2022-10-23T22:58:35.127Z,17.65
2022-10-23T23:01:23.979Z,17.67
2022-10-23T23:03:51.428Z,17.57
2022-10-23T23:06:19.287Z,17.30
2022-10-23T23:08:46.222Z,17.48
2022-10-23T23:11:14.632Z,17.44
2022-10-23T23:13:41.583Z,17.40
2022-10-23T23:16:08.571Z,17.21
2022-10-23T23:18:35.131Z,17.24
2022-10-23T23:21:02.771Z,17.35
2022-10-23T23:23:29.894Z,17.36
2022-10-23T23:25:56.738Z,17.22
2022-10-23T23:28:23.644Z,17.18
2022-10-23T23:30:50.167Z,17.25
2022-10-23T23:33:22.299Z,17.10
2022-10-23T23:35:48.725Z,16.97
2022-10-23T23:38:15.213Z,16.91
2022-10-23T23:40:51.304Z,16.82
2022-10-23T23:43:18.064Z,16.78
2022-10-23T23:45:44.572Z,16.92
2022-10-23T23:48:11.108Z,16.55
2022-10-23T23:50:37.964Z,16.80
2022-10-23T23:53:04.423Z,16.91
2022-10-23T23:55:30.884Z,16.65
2022-10-23T23:57:57.360Z,16.65
